Time;durP1;ratioP1;P1;durP2;ratioP2;P2;SDS_P1;SDS_P2;PMS_P1;PMS_P2;Temp;Humidity;BMP_temperature;BMP_pressure;BME280_temperature;BME280_humidity;BME280_pressure;Samples;Min_cycle;Max_cycle;Signal;HPM_P1;HPM_P2
2023/07/20 00:02:23;;;;;;;3.10;2.13;;;19.20;99.90;;;;;;5012948;28;20392;-80
2023/07/20 00:04:49;;;;;;;3.47;2.13;;;19.20;99.90;;;;;;5011155;28;20080;-79
2023/07/20 00:07:14;;;;;;;4.82;2.40;;;19.10;99.90;;;;;;5012508;28;20033;-80
2023/07/20 00:09:40;;;;;;;6.10;2.67;;;19.10;99.90;;;;;;5012635;28;20028;-79
2023/07/20 00:12:06;;;;;;;5.20;3.17;;;19.00;99.90;;;;;;5012705;28;20030;-79
2023/07/20 00:14:32;;;;;;;4.57;1.98;;;19.00;99.90;;;;;;5011148;28;20073;-79
2023/07/20 00:16:57;;;;;;;4.55;2.40;;;18.90;99.90;;;;;;5011379;28;20021;-80
2023/07/20 00:19:24;;;;;;;4.97;2.25;;;18.90;99.90;;;;;;5012605;28;20033;-79
2023/07/20 00:21:50;;;;;;;3.28;2.70;;;18.90;99.90;;;;;;5011276;28;20026;-80
2023/07/20 00:24:16;;;;;;;3.47;2.38;;;18.90;99.90;;;;;;5011098;28;20092;-79
2023/07/20 00:26:41;;;;;;;2.92;2.50;;;18.90;99.90;;;;;;5011787;28;20034;-79
2023/07/20 00:29:07;;;;;;;2.92;2.47;;;18.90;99.90;;;;;;5010970;28;20018;-79
2023/07/20 00:31:34;;;;;;;6.80;2.88;;;18.80;99.90;;;;;;5011124;28;20053;-79
2023/07/20 00:34:00;;;;;;;4.28;2.22;;;18.70;99.90;;;;;;5011835;28;20112;-79
2023/07/20 00:36:26;;;;;;;6.18;2.55;;;18.70;99.90;;;;;;5011212;28;20061;-79
2023/07/20 00:38:51;;;;;;;3.70;2.47;;;18.70;99.90;;;;;;5010801;28;20022;-79
2023/07/20 00:41:17;;;;;;;3.00;2.42;;;18.80;99.90;;;;;;5012235;28;20022;-79
2023/07/20 00:43:42;;;;;;;3.08;1.92;;;18.80;99.90;;;;;;5010875;28;20129;-79
2023/07/20 00:46:09;;;;;;;4.35;2.70;;;18.70;99.90;;;;;;5011039;28;20022;-79
2023/07/20 00:48:35;;;;;;;2.75;2.15;;;18.70;99.90;;;;;;5010410;28;20026;-80
2023/07/20 00:51:02;;;;;;;3.05;1.90;;;18.70;99.90;;;;;;5012416;28;20029;-79
2023/07/20 00:53:28;;;;;;;2.67;1.95;;;18.70;99.90;;;;;;5010737;28;20030;-80
2023/07/20 00:55:54;;;;;;;4.80;2.55;;;18.70;99.90;;;;;;5010927;28;20026;-79
2023/07/20 00:58:20;;;;;;;3.42;2.42;;;18.70;99.90;;;;;;5012241;28;20057;-79
2023/07/20 01:00:47;;;;;;;3.20;2.80;;;18.70;99.90;;;;;;5012044;28;20034;-79
2023/07/20 01:03:12;;;;;;;3.53;2.40;;;18.70;99.90;;;;;;5010827;28;20026;-80
2023/07/20 01:06:04;;;;;;;4.20;2.38;;;18.70;99.90;;;;;;5011869;28;20084;-80
2023/07/20 01:09:00;;;;;;;4.93;2.78;;;18.70;99.90;;;;;;5010728;28;20121;-80
2023/07/20 01:11:59;;;;;;;5.28;2.40;;;18.50;99.90;;;;;;5012416;28;20026;-79
2023/07/20 01:14:25;;;;;;;4.78;2.40;;;18.50;99.90;;;;;;5010506;28;20415;-79
2023/07/20 01:16:52;;;;;;;3.90;1.92;;;18.50;99.90;;;;;;5011984;28;20105;-79
2023/07/20 01:19:18;;;;;;;1.88;1.63;;;18.50;99.90;;;;;;5013849;28;20026;-79
2023/07/20 01:21:53;;;;;;;4.88;2.47;;;18.50;99.90;;;;;;5015618;28;20057;-78
2023/07/20 01:24:36;;;;;;;3.72;1.98;;;18.60;99.90;;;;;;5015310;28;20021;-79
2023/07/20 01:27:34;;;;;;;5.38;1.90;;;18.60;99.90;;;;;;5018275;28;20052;-79
2023/07/20 01:30:26;;;;;;;3.83;2.20;;;18.60;99.90;;;;;;5025822;28;20037;-80
2023/07/20 01:32:54;;;;;;;6.03;2.22;;;18.50;99.90;;;;;;5034836;28;20014;-79
2023/07/20 01:35:23;;;;;;;3.28;2.97;;;18.60;99.90;;;;;;5035541;28;20037;-79
2023/07/20 01:37:50;;;;;;;3.45;2.22;;;18.60;99.90;;;;;;5035055;28;20026;-80
2023/07/20 01:40:16;;;;;;;3.78;1.90;;;18.70;99.90;;;;;;5034587;28;20013;-80
2023/07/20 01:42:48;;;;;;;4.53;1.75;;;18.60;99.90;;;;;;5034039;28;20018;-80
2023/07/20 01:45:14;;;;;;;3.85;2.17;;;18.60;99.90;;;;;;5033087;28;20089;-80
2023/07/20 01:47:40;;;;;;;2.83;1.73;;;18.50;99.90;;;;;;5031367;28;20072;-80
2023/07/20 01:50:07;;;;;;;7.93;1.52;;;18.60;99.90;;;;;;5017472;28;20076;-80
2023/07/20 01:52:32;;;;;;;3.10;1.80;;;18.60;99.90;;;;;;5015386;28;20029;-80
2023/07/20 01:54:58;;;;;;;2.20;1.90;;;18.50;99.90;;;;;;5016057;28;20033;-80
2023/07/20 01:57:23;;;;;;;2.20;2.00;;;18.50;99.90;;;;;;5016434;28;20479;-80
2023/07/20 01:59:49;;;;;;;4.10;2.22;;;18.50;99.90;;;;;;5014852;28;20018;-80
2023/07/20 02:02:15;;;;;;;3.15;2.28;;;18.50;99.90;;;;;;5016061;28;20492;-80
2023/07/20 02:04:40;;;;;;;2.67;1.90;;;18.50;99.90;;;;;;5015167;28;20022;-80
2023/07/20 02:07:06;;;;;;;5.03;1.70;;;18.60;99.90;;;;;;5016407;28;20624;-80
2023/07/20 02:09:31;;;;;;;4.72;2.45;;;18.60;99.90;;;;;;5014591;28;20526;-80
2023/07/20 02:11:57;;;;;;;3.05;1.90;;;18.70;99.90;;;;;;5014577;28;20025;-80
2023/07/20 02:14:23;;;;;;;2.55;1.70;;;18.60;99.90;;;;;;5015875;28;20451;-80
2023/07/20 02:16:52;;;;;;;3.38;1.83;;;18.60;99.90;;;;;;5016552;28;20512;-80
2023/07/20 02:19:18;;;;;;;2.45;1.85;;;18.60;99.90;;;;;;5015576;28;20396;-80
2023/07/20 02:21:44;;;;;;;3.05;2.20;;;18.60;99.90;;;;;;5014303;28;20026;-80
2023/07/20 02:24:10;;;;;;;2.13;1.60;;;18.70;99.90;;;;;;5015443;28;20084;-80
2023/07/20 02:26:35;;;;;;;2.45;1.85;;;18.70;99.90;;;;;;5015460;28;20113;-80
2023/07/20 02:29:04;;;;;;;5.25;1.83;;;18.70;99.90;;;;;;5015451;28;20056;-80
2023/07/20 02:31:30;;;;;;;2.53;1.55;;;18.70;99.90;;;;;;5014586;28;20022;-80
2023/07/20 02:33:55;;;;;;;3.47;1.83;;;18.70;99.90;;;;;;5014829;28;20064;-80
2023/07/20 02:36:21;;;;;;;6.85;1.98;;;18.70;99.90;;;;;;5014159;28;20126;-79
2023/07/20 02:38:47;;;;;;;1.55;1.42;;;18.80;99.90;;;;;;5014275;28;20026;-79
2023/07/20 02:41:13;;;;;;;2.10;1.77;;;18.80;99.90;;;;;;5014135;28;20112;-79
2023/07/20 02:43:39;;;;;;;2.53;1.63;;;18.70;99.90;;;;;;5013515;28;20026;-80
2023/07/20 02:46:04;;;;;;;3.92;1.67;;;18.60;99.90;;;;;;5013957;28;20634;-80
2023/07/20 02:48:30;;;;;;;2.78;1.70;;;18.60;99.90;;;;;;5014873;28;20052;-80
2023/07/20 02:50:56;;;;;;;3.08;2.40;;;18.70;99.90;;;;;;5014998;28;20100;-80
2023/07/20 02:53:21;;;;;;;3.40;1.77;;;18.70;99.90;;;;;;5013509;28;20030;-80
2023/07/20 02:55:47;;;;;;;6.90;2.13;;;18.60;99.90;;;;;;5013589;28;20029;-80
2023/07/20 02:58:13;;;;;;;4.05;2.20;;;18.50;99.90;;;;;;5015029;28;20097;-80
2023/07/20 03:00:38;;;;;;;3.95;2.35;;;18.50;99.90;;;;;;5012960;28;20022;-80
2023/07/20 03:03:05;;;;;;;5.40;2.88;;;18.50;99.90;;;;;;5013249;28;20022;-80
2023/07/20 03:05:30;;;;;;;4.78;1.90;;;18.50;99.90;;;;;;5014654;28;20124;-80
2023/07/20 03:07:56;;;;;;;6.45;2.60;;;18.50;99.90;;;;;;5014736;28;20057;-80
2023/07/20 03:10:22;;;;;;;4.60;2.35;;;18.50;99.90;;;;;;5013272;28;20033;-80
2023/07/20 03:12:47;;;;;;;3.38;2.03;;;18.40;99.90;;;;;;5013067;28;20125;-79
2023/07/20 03:15:13;;;;;;;6.10;2.35;;;18.40;99.90;;;;;;5014659;28;20032;-80
2023/07/20 03:17:38;;;;;;;4.57;2.00;;;18.40;99.90;;;;;;5013163;28;20021;-80
2023/07/20 03:20:08;;;;;;;3.72;2.10;;;18.40;99.90;;;;;;5012771;28;20113;-80
2023/07/20 03:22:34;;;;;;;8.45;2.78;;;18.40;99.90;;;;;;5013035;28;20025;-79
2023/07/20 03:25:00;;;;;;;3.70;2.28;;;18.40;99.90;;;;;;5012595;28;20029;-79
2023/07/20 03:27:25;;;;;;;3.92;2.15;;;18.40;99.90;;;;;;5014026;28;20447;-80
2023/07/20 03:29:51;;;;;;;2.38;1.80;;;18.40;99.90;;;;;;5012804;28;20026;-80
2023/07/20 03:32:16;;;;;;;1.83;1.58;;;18.40;99.90;;;;;;5012843;28;20068;-79
2023/07/20 03:34:44;;;;;;;3.22;2.30;;;18.40;99.90;;;;;;5013629;28;20487;-79
2023/07/20 03:37:09;;;;;;;5.30;1.98;;;18.40;99.90;;;;;;5012729;28;20029;-80
2023/07/20 03:39:35;;;;;;;3.58;2.40;;;18.40;99.90;;;;;;5013834;28;20033;-79
2023/07/20 03:42:00;;;;;;;3.15;1.40;;;18.40;99.90;;;;;;5011981;28;20480;-79
2023/07/20 03:44:26;;;;;;;5.32;2.08;;;18.50;99.90;;;;;;5013629;28;20033;-80
2023/07/20 03:46:52;;;;;;;3.85;2.25;;;18.50;99.90;;;;;;5013613;28;20045;-80
2023/07/20 03:49:18;;;;;;;4.72;1.95;;;18.50;99.90;;;;;;5012345;28;20068;-80
2023/07/20 03:51:43;;;;;;;7.07;2.58;;;18.50;99.90;;;;;;5012516;28;20041;-80
2023/07/20 03:54:09;;;;;;;4.35;2.22;;;18.50;99.90;;;;;;5014056;28;20021;-80
2023/07/20 03:56:35;;;;;;;2.40;2.20;;;18.50;99.90;;;;;;5013040;28;20036;-80
2023/07/20 03:59:01;;;;;;;5.40;2.17;;;18.50;99.90;;;;;;5013722;28;20158;-80
2023/07/20 04:01:27;;;;;;;3.20;2.22;;;18.60;99.90;;;;;;5013905;28;20022;-80
2023/07/20 04:03:52;;;;;;;2.03;1.60;;;18.60;99.90;;;;;;5011904;28;20033;-80
2023/07/20 04:06:18;;;;;;;6.47;1.83;;;18.60;99.90;;;;;;5012543;28;20022;-80
2023/07/20 04:08:44;;;;;;;4.15;2.50;;;18.70;99.90;;;;;;5012814;28;20076;-80
2023/07/20 04:11:10;;;;;;;6.40;1.85;;;18.80;99.90;;;;;;5013883;28;20048;-80
2023/07/20 04:13:36;;;;;;;2.10;1.75;;;18.90;99.90;;;;;;5012339;28;20085;-79
2023/07/20 04:16:02;;;;;;;6.97;2.17;;;19.00;99.90;;;;;;5009181;28;20027;-79
2023/07/20 04:18:28;;;;;;;6.25;2.35;;;19.00;99.90;;;;;;4994674;28;20058;-81
2023/07/20 04:20:54;;;;;;;4.40;2.10;;;20.40;99.90;;;;;;4992780;28;20034;-78
2023/07/20 04:23:19;;;;;;;1.95;1.75;;;20.80;99.90;;;;;;4993786;28;20469;-80
2023/07/20 04:25:45;;;;;;;4.95;2.92;;;21.10;99.90;;;;;;5010702;28;20113;-78
2023/07/20 04:28:11;;;;;;;3.58;1.80;;;21.30;99.90;;;;;;5013035;28;20097;-80
2023/07/20 04:30:37;;;;;;;2.15;1.95;;;21.50;99.90;;;;;;5013791;28;20037;-80
2023/07/20 04:33:03;;;;;;;8.57;1.83;;;21.70;99.90;;;;;;5013415;28;20507;-80
2023/07/20 04:35:47;;;;;;;2.97;2.35;;;21.60;99.90;;;;;;5014369;28;20053;-81
2023/07/20 04:38:15;;;;;;;3.58;1.90;;;21.40;99.90;;;;;;5012742;28;20611;-80
2023/07/20 04:40:40;;;;;;;2.80;1.88;;;21.40;99.90;;;;;;5012687;28;20030;-81
2023/07/20 04:43:07;;;;;;;2.10;1.90;;;21.40;99.90;;;;;;5013500;28;20102;-80
2023/07/20 04:45:32;;;;;;;4.00;1.85;;;21.40;99.90;;;;;;5013881;28;20476;-80
2023/07/20 04:47:58;;;;;;;7.63;1.73;;;21.50;99.90;;;;;;5012932;28;20030;-80
2023/07/20 04:50:25;;;;;;;8.77;2.45;;;21.40;99.90;;;;;;5016914;28;20030;-80
2023/07/20 04:52:50;;;;;;;5.35;2.05;;;21.50;99.90;;;;;;5018690;28;20022;-80
2023/07/20 04:55:16;;;;;;;3.40;1.83;;;21.50;99.90;;;;;;5018649;28;20444;-80
2023/07/20 04:57:42;;;;;;;5.05;3.20;;;21.80;99.90;;;;;;5022729;28;20117;-81
2023/07/20 05:00:10;;;;;;;6.97;2.30;;;22.20;99.90;;;;;;5017062;28;20116;-80
2023/07/20 05:02:36;;;;;;;3.13;2.28;;;22.30;99.90;;;;;;5018182;28;20030;-80
2023/07/20 05:05:04;;;;;;;5.78;3.17;;;22.20;99.90;;;;;;5015730;28;20092;-79
2023/07/20 05:07:30;;;;;;;6.43;3.05;;;22.10;99.90;;;;;;5017558;28;20101;-81
2023/07/20 05:09:56;;;;;;;7.47;2.80;;;22.10;99.90;;;;;;5016030;28;20045;-81
2023/07/20 05:12:22;;;;;;;3.47;2.65;;;21.90;99.90;;;;;;5017768;28;20091;-80
2023/07/20 05:14:47;;;;;;;5.95;2.50;;;21.90;99.90;;;;;;5015880;28;20034;-80
2023/07/20 05:17:13;;;;;;;5.38;2.58;;;21.90;99.90;;;;;;5017424;28;20034;-80
2023/07/20 05:19:38;;;;;;;3.78;2.78;;;22.00;99.90;;;;;;5015136;28;20476;-81
2023/07/20 05:22:05;;;;;;;4.07;2.45;;;22.00;99.90;;;;;;5016103;28;20117;-80
2023/07/20 05:24:31;;;;;;;3.97;2.67;;;21.90;99.90;;;;;;5016254;28;20026;-79
2023/07/20 05:26:58;;;;;;;6.80;2.35;;;21.80;99.90;;;;;;5016694;28;20026;-80
2023/07/20 05:29:23;;;;;;;5.65;2.72;;;21.90;99.90;;;;;;5015608;28;20069;-81
2023/07/20 05:31:49;;;;;;;3.35;2.35;;;21.90;99.90;;;;;;5011011;28;20027;-81
2023/07/20 05:34:14;;;;;;;5.55;2.05;;;21.90;99.90;;;;;;5012991;28;20615;-81
2023/07/20 05:37:11;;;;;;;3.17;2.17;;;21.70;99.90;;;;;;5015720;28;20083;-81
2023/07/20 05:39:36;;;;;;;2.80;2.33;;;21.90;99.90;;;;;;5015025;28;20026;-81
2023/07/20 05:42:02;;;;;;;14.68;3.20;;;22.00;99.90;;;;;;5015684;28;20084;-81
2023/07/20 05:44:28;;;;;;;4.45;2.75;;;21.90;99.90;;;;;;5015629;28;20113;-81
2023/07/20 05:46:53;;;;;;;2.72;2.10;;;22.10;99.90;;;;;;5012553;28;20033;-80
2023/07/20 05:49:19;;;;;;;3.53;2.50;;;22.20;99.90;;;;;;5016192;28;20026;-81
2023/07/20 05:51:46;;;;;;;4.80;2.63;;;22.10;99.90;;;;;;5015636;28;20029;-81
2023/07/20 05:54:12;;;;;;;5.97;2.35;;;22.20;99.90;;;;;;5015091;28;20037;-81
2023/07/20 05:56:37;;;;;;;4.72;2.85;;;22.10;99.90;;;;;;5014387;28;20030;-81
2023/07/20 05:59:03;;;;;;;2.53;2.10;;;22.00;99.90;;;;;;5016027;28;20030;-81
2023/07/20 06:01:28;;;;;;;2.17;1.98;;;22.10;99.90;;;;;;5016033;28;20053;-80
2023/07/20 06:03:54;;;;;;;3.15;1.80;;;22.20;99.90;;;;;;5016137;28;20495;-81
2023/07/20 06:06:20;;;;;;;3.83;2.35;;;22.20;99.90;;;;;;5015817;28;20034;-81
2023/07/20 06:08:46;;;;;;;5.22;2.47;;;22.20;99.90;;;;;;5015094;28;20415;-81
2023/07/20 06:11:11;;;;;;;2.83;1.80;;;22.10;99.90;;;;;;5015625;28;20022;-80
2023/07/20 06:13:37;;;;;;;5.30;2.08;;;22.20;99.90;;;;;;5013798;28;20032;-81
2023/07/20 06:16:03;;;;;;;3.78;2.30;;;22.10;99.90;;;;;;5014254;28;20101;-81
2023/07/20 06:18:30;;;;;;;2.35;2.13;;;22.10;99.90;;;;;;5015448;28;20034;-80
2023/07/20 06:20:56;;;;;;;4.45;2.00;;;22.00;99.90;;;;;;5015554;28;20018;-81
2023/07/20 06:23:22;;;;;;;3.15;1.98;;;22.00;99.90;;;;;;4998002;28;20110;-80
2023/07/20 06:25:48;;;;;;;2.38;1.73;;;22.00;99.90;;;;;;4995114;28;20118;-81
2023/07/20 06:28:14;;;;;;;3.92;2.08;;;22.00;99.90;;;;;;4994649;28;20105;-81
2023/07/20 06:30:40;;;;;;;3.95;2.28;;;22.00;99.90;;;;;;4995945;28;20050;-81
2023/07/20 06:33:06;;;;;;;2.63;2.33;;;22.10;99.90;;;;;;4994723;28;20493;-82
2023/07/20 06:35:34;;;;;;;3.63;2.53;;;22.10;99.90;;;;;;4993602;28;20038;-79
2023/07/20 06:38:00;;;;;;;2.53;2.30;;;22.10;99.90;;;;;;4995827;28;20026;-79
2023/07/20 06:40:26;;;;;;;9.20;2.63;;;22.00;99.90;;;;;;4997077;28;20026;-80
2023/07/20 06:42:51;;;;;;;5.03;2.10;;;22.00;99.90;;;;;;4996717;28;20353;-80
2023/07/20 06:45:17;;;;;;;2.85;2.05;;;21.90;99.90;;;;;;4997551;28;20033;-79
2023/07/20 06:47:43;;;;;;;3.88;1.70;;;21.90;99.90;;;;;;4996243;28;20037;-80
2023/07/20 06:50:09;;;;;;;4.72;2.53;;;22.00;99.90;;;;;;4994172;28;20022;-81
2023/07/20 06:52:35;;;;;;;6.40;2.28;;;22.00;99.90;;;;;;4996349;28;20029;-80
2023/07/20 06:55:01;;;;;;;3.47;2.00;;;22.10;99.90;;;;;;4996116;28;20030;-80
2023/07/20 06:57:26;;;;;;;4.85;2.47;;;22.20;99.90;;;;;;4997268;28;20491;-81
2023/07/20 06:59:53;;;;;;;3.45;2.03;;;22.20;99.90;;;;;;4997524;28;20026;-81
2023/07/20 07:02:19;;;;;;;3.47;2.60;;;22.20;99.90;;;;;;4996220;28;20026;-81
2023/07/20 07:04:46;;;;;;;5.88;2.30;;;22.40;99.90;;;;;;4996018;28;20141;-80
2023/07/20 07:07:15;;;;;;;3.17;2.70;;;22.50;99.90;;;;;;4995977;28;20046;-81
2023/07/20 07:09:41;;;;;;;5.40;3.47;;;22.50;99.90;;;;;;4996998;28;20026;-81
2023/07/20 07:12:08;;;;;;;4.95;2.58;;;22.70;99.90;;;;;;4995526;28;20037;-79
2023/07/20 07:14:34;;;;;;;3.80;2.45;;;22.90;99.90;;;;;;4997845;28;20041;-80
2023/07/20 07:17:00;;;;;;;5.18;1.90;;;23.00;99.90;;;;;;4995961;28;20046;-81
2023/07/20 07:19:26;;;;;;;4.38;2.67;;;22.90;99.90;;;;;;4996188;28;20022;-81
2023/07/20 07:21:51;;;;;;;2.30;1.88;;;22.90;99.90;;;;;;4996359;28;20030;-82
2023/07/20 07:24:17;;;;;;;2.38;2.03;;;22.90;99.90;;;;;;4996141;28;20022;-82
2023/07/20 07:26:42;;;;;;;4.28;1.90;;;22.90;99.90;;;;;;4994916;28;20026;-82
2023/07/20 07:29:08;;;;;;;3.35;2.17;;;22.90;99.90;;;;;;4995394;28;20053;-82
2023/07/20 07:31:38;;;;;;;2.33;2.10;;;23.00;99.90;;;;;;4995400;28;20046;-80
2023/07/20 07:34:04;;;;;;;2.08;1.70;;;23.00;99.90;;;;;;4996331;28;20488;-81
2023/07/20 07:36:31;;;;;;;3.35;2.10;;;23.20;99.90;;;;;;4994588;28;20034;-82
2023/07/20 07:38:57;;;;;;;3.63;2.20;;;23.30;99.90;;;;;;4994337;28;20032;-81
2023/07/20 07:41:22;;;;;;;2.38;1.92;;;23.30;99.90;;;;;;4994865;28;20026;-82
2023/07/20 07:43:48;;;;;;;3.30;2.08;;;23.40;99.90;;;;;;4993999;28;20400;-82
2023/07/20 07:46:14;;;;;;;4.18;2.20;;;23.40;99.90;;;;;;4994244;28;20038;-80
2023/07/20 07:48:40;;;;;;;3.95;2.17;;;23.50;99.90;;;;;;4993721;28;20555;-81
2023/07/20 07:51:05;;;;;;;3.05;2.75;;;23.60;99.60;;;;;;4993685;28;20023;-81
2023/07/20 07:53:32;;;;;;;2.13;1.65;;;23.60;99.20;;;;;;4993699;28;20022;-81
2023/07/20 07:55:58;;;;;;;4.05;2.28;;;23.90;98.60;;;;;;4994641;28;20026;-81
2023/07/20 07:58:24;;;;;;;3.95;2.58;;;23.90;96.00;;;;;;4994428;28;20505;-81
2023/07/20 08:00:49;;;;;;;2.20;2.03;;;24.10;96.30;;;;;;4994228;28;20042;-82
2023/07/20 08:03:15;;;;;;;2.33;2.00;;;24.30;96.30;;;;;;4994478;28;20032;-82
2023/07/20 08:05:41;;;;;;;2.70;1.98;;;24.40;95.00;;;;;;4994478;28;20026;-81
2023/07/20 08:08:08;;;;;;;3.83;1.90;;;24.50;95.10;;;;;;4997746;28;20543;-82
2023/07/20 08:10:34;;;;;;;2.92;2.35;;;24.70;93.60;;;;;;5005619;28;20476;-81
2023/07/20 08:12:59;;;;;;;3.95;2.00;;;24.90;94.50;;;;;;5012886;28;20049;-81
2023/07/20 08:15:25;;;;;;;5.72;1.85;;;25.00;95.10;;;;;;5013814;28;20022;-81
2023/07/20 08:17:52;;;;;;;2.00;1.70;;;25.10;95.10;;;;;;5016311;28;20018;-80
2023/07/20 08:20:17;;;;;;;1.92;1.73;;;25.20;94.30;;;;;;5014724;28;20024;-81
2023/07/20 08:22:43;;;;;;;5.00;2.67;;;25.40;94.30;;;;;;5014042;28;21573;-82
2023/07/20 08:25:09;;;;;;;1.77;1.48;;;25.50;92.30;;;;;;5015652;28;20041;-83
2023/07/20 08:27:36;;;;;;;2.13;1.88;;;25.70;90.40;;;;;;5013923;28;20026;-83
2023/07/20 08:30:02;;;;;;;5.30;1.73;;;25.90;90.30;;;;;;5022763;28;20033;-80
2023/07/20 08:32:28;;;;;;;2.47;1.13;;;26.10;89.60;;;;;;5019254;28;20488;-82
2023/07/20 08:34:53;;;;;;;2.80;1.58;;;26.40;82.20;;;;;;5036827;23;20077;-74
2023/07/20 08:37:19;;;;;;;2.03;1.77;;;26.50;77.00;;;;;;5017170;28;20022;-74
2023/07/20 08:39:45;;;;;;;1.30;1.20;;;26.50;77.30;;;;;;5016768;28;20030;-74
2023/07/20 08:42:12;;;;;;;1.42;1.33;;;26.50;71.60;;;;;;5017070;28;20022;-74
2023/07/20 08:44:39;;;;;;;1.95;1.50;;;26.60;69.40;;;;;;5028232;28;20022;-77
2023/07/20 08:47:07;;;;;;;1.98;1.30;;;26.50;71.10;;;;;;5036420;28;20022;-77
2023/07/20 08:49:33;;;;;;;2.72;1.67;;;26.40;68.60;;;;;;5035564;28;20102;-77
2023/07/20 08:52:00;;;;;;;7.05;1.33;;;26.50;75.40;;;;;;5037345;28;20036;-77
2023/07/20 08:54:33;;;;;;;8.13;2.42;;;26.60;73.90;;;;;;5035138;28;20033;-74
2023/07/20 08:57:02;;;;;;;2.38;1.23;;;26.80;72.40;;;;;;5038385;28;20502;-75
2023/07/20 08:59:30;;;;;;;1.70;1.20;;;27.10;71.40;;;;;;5036773;28;20064;-75
2023/07/20 09:01:56;;;;;;;4.30;1.73;;;27.20;66.20;;;;;;5035979;28;20026;-77
2023/07/20 09:04:22;;;;;;;1.40;1.10;;;27.30;65.30;;;;;;5037517;28;20033;-78
2023/07/20 09:06:50;;;;;;;1.30;1.15;;;27.40;64.50;;;;;;5034080;28;20026;-78
2023/07/20 09:09:16;;;;;;;1.25;1.15;;;27.30;63.60;;;;;;5035858;28;20053;-79
2023/07/20 09:11:42;;;;;;;1.45;1.17;;;27.30;63.70;;;;;;5035137;28;20055;-77
2023/07/20 09:14:10;;;;;;;1.90;1.25;;;27.40;61.30;;;;;;5035742;28;20109;-79
2023/07/20 09:16:49;;;;;;;2.53;1.50;;;27.50;60.90;;;;;;5035852;28;20022;-78
2023/07/20 09:19:16;;;;;;;1.50;1.02;;;27.50;60.00;;;;;;5035520;28;20074;-77
2023/07/20 09:21:45;;;;;;;1.23;1.10;;;27.60;58.50;;;;;;5034483;28;20036;-79
2023/07/20 09:24:11;;;;;;;1.75;1.40;;;27.70;59.90;;;;;;5035231;28;20026;-77
2023/07/20 09:26:42;;;;;;;2.28;1.10;;;27.70;57.10;;;;;;5034023;28;20433;-76
2023/07/20 09:29:08;;;;;;;1.08;0.95;;;27.70;57.90;;;;;;5033805;28;20029;-76
2023/07/20 09:31:34;;;;;;;2.60;1.23;;;27.70;56.40;;;;;;5035003;28;20506;-76
2023/07/20 09:33:59;;;;;;;3.92;1.05;;;27.70;59.00;;;;;;5034587;28;20033;-79
2023/07/20 09:36:27;;;;;;;1.45;0.77;;;27.80;58.00;;;;;;5033639;28;20025;-77
2023/07/20 09:38:53;;;;;;;4.75;1.80;;;28.10;60.00;;;;;;5033207;28;20037;-76
2023/07/20 09:41:20;;;;;;;3.85;1.48;;;28.30;61.20;;;;;;5033570;28;20028;-78
2023/07/20 09:43:46;;;;;;;1.75;1.15;;;28.50;59.60;;;;;;5033224;28;20053;-77
2023/07/20 09:46:12;;;;;;;1.73;1.27;;;28.30;56.90;;;;;;5034420;28;20061;-78
2023/07/20 09:48:37;;;;;;;2.05;1.38;;;28.30;57.70;;;;;;5033490;28;20022;-78
2023/07/20 09:51:05;;;;;;;3.75;1.20;;;28.40;57.10;;;;;;5033110;28;20037;-79
2023/07/20 09:53:33;;;;;;;0.85;0.85;;;28.50;55.50;;;;;;5033924;28;20026;-78
2023/07/20 09:55:58;;;;;;;1.20;1.10;;;28.60;57.00;;;;;;5031974;28;20025;-77
2023/07/20 09:58:26;;;;;;;1.20;0.90;;;28.60;56.90;;;;;;5015957;28;20122;-77
2023/07/20 10:00:54;;;;;;;1.88;1.02;;;28.60;57.30;;;;;;5014598;28;20056;-77
2023/07/20 10:03:21;;;;;;;5.65;1.50;;;28.70;55.40;;;;;;5014770;28;20056;-78
2023/07/20 10:06:10;;;;;;;1.95;1.48;;;28.80;54.50;;;;;;5014446;28;20022;-78
2023/07/20 10:08:40;;;;;;;3.25;1.20;;;28.80;56.40;;;;;;5014426;28;20026;-77
2023/07/20 10:11:08;;;;;;;1.10;1.00;;;28.80;58.40;;;;;;5014618;28;20025;-79
2023/07/20 10:13:37;;;;;;;4.32;1.35;;;28.90;54.70;;;;;;5013961;28;20033;-79
2023/07/20 10:16:14;;;;;;;1.25;1.15;;;29.30;54.80;;;;;;5015696;28;20037;-78
2023/07/20 10:19:11;;;;;;;1.25;1.00;;;29.40;53.80;;;;;;5013888;28;20400;-78
2023/07/20 10:21:42;;;;;;;1.17;1.08;;;29.50;52.30;;;;;;5013576;28;20034;-79
2023/07/20 10:24:08;;;;;;;1.77;1.48;;;29.60;52.90;;;;;;5013501;28;20530;-74
2023/07/20 10:26:34;;;;;;;2.67;1.67;;;29.80;52.30;;;;;;5013616;28;20026;-75
2023/07/20 10:29:01;;;;;;;1.65;1.25;;;29.70;50.20;;;;;;5014753;28;20045;-75
2023/07/20 10:31:28;;;;;;;1.92;1.02;;;29.60;48.90;;;;;;5013577;28;20030;-75
2023/07/20 10:33:56;;;;;;;5.72;1.13;;;29.50;51.30;;;;;;5012984;28;20064;-76
2023/07/20 10:36:27;;;;;;;3.42;1.13;;;29.50;50.10;;;;;;5015083;28;20054;-76
2023/07/20 10:38:57;;;;;;;3.67;2.58;;;29.80;51.10;;;;;;5015117;28;20033;-75
2023/07/20 10:41:35;;;;;;;1.92;1.73;;;30.20;52.70;;;;;;5014682;28;20057;-77
2023/07/20 10:44:06;;;;;;;1.42;1.02;;;30.70;52.20;;;;;;5014532;28;20034;-74
2023/07/20 10:46:38;;;;;;;1.23;0.93;;;30.70;47.80;;;;;;5013133;28;20021;-79
2023/07/20 10:49:05;;;;;;;1.27;1.08;;;30.80;48.20;;;;;;5013852;28;20018;-75
2023/07/20 10:51:48;;;;;;;1.33;1.17;;;30.70;49.10;;;;;;5012791;28;20064;-75
2023/07/20 10:54:19;;;;;;;1.75;1.35;;;30.40;48.40;;;;;;5012631;28;20026;-74
2023/07/20 10:56:48;;;;;;;1.35;1.25;;;30.20;50.90;;;;;;5014302;28;20030;-75
2023/07/20 10:59:20;;;;;;;1.60;0.93;;;30.00;49.70;;;;;;5013849;28;20036;-74
2023/07/20 11:01:47;;;;;;;2.20;1.20;;;29.90;50.70;;;;;;5013895;28;20030;-79
2023/07/20 11:04:13;;;;;;;2.83;1.10;;;29.80;50.70;;;;;;5013762;28;20034;-75
2023/07/20 11:06:43;;;;;;;4.05;2.13;;;29.80;51.30;;;;;;5014488;28;20026;-77
2023/07/20 11:09:16;;;;;;;1.70;1.13;;;30.00;50.00;;;;;;5013635;28;20022;-75
2023/07/20 11:11:43;;;;;;;2.00;1.80;;;30.00;48.80;;;;;;5013772;28;20089;-74
2023/07/20 11:14:31;;;;;;;4.40;1.45;;;29.90;47.80;;;;;;5012925;28;20451;-76
2023/07/20 11:17:12;;;;;;;1.23;1.13;;;29.80;48.20;;;;;;5012952;28;20033;-73
2023/07/20 11:19:39;;;;;;;1.63;1.00;;;29.90;46.70;;;;;;5013699;28;20029;-74
2023/07/20 11:22:07;;;;;;;4.95;0.82;;;30.00;48.00;;;;;;5013931;28;20030;-77
2023/07/20 11:24:33;;;;;;;1.17;0.88;;;29.80;47.80;;;;;;5012586;28;20049;-77
2023/07/20 11:27:00;;;;;;;1.17;0.90;;;29.50;49.20;;;;;;5012453;28;20064;-76
2023/07/20 11:29:26;;;;;;;1.42;1.15;;;29.20;49.30;;;;;;5013526;28;20101;-76
2023/07/20 11:31:52;;;;;;;1.65;1.20;;;29.00;51.40;;;;;;5012440;28;20076;-75
2023/07/20 11:34:19;;;;;;;2.13;0.85;;;28.70;51.80;;;;;;5011909;28;20439;-76
2023/07/20 11:36:49;;;;;;;1.02;1.00;;;28.50;52.20;;;;;;5013678;28;20026;-76
2023/07/20 11:39:16;;;;;;;1.40;1.30;;;28.40;55.50;;;;;;5012582;28;20025;-75
2023/07/20 11:41:50;;;;;;;3.03;1.33;;;28.30;53.20;;;;;;5013691;28;20041;-76
2023/07/20 11:44:17;;;;;;;2.38;1.30;;;28.40;57.10;;;;;;5013697;28;20022;-77
2023/07/20 11:46:44;;;;;;;2.80;1.08;;;28.40;56.20;;;;;;5012251;28;20125;-76
2023/07/20 11:49:10;;;;;;;2.10;1.52;;;28.30;56.00;;;;;;5011611;28;20428;-78
2023/07/20 11:51:37;;;;;;;2.53;1.33;;;28.30;53.40;;;;;;5011904;28;20048;-76
2023/07/20 11:54:05;;;;;;;2.00;1.08;;;28.40;56.90;;;;;;5011925;28;20080;-76
2023/07/20 11:56:30;;;;;;;1.38;1.17;;;28.50;58.00;;;;;;5013457;28;20562;-76
2023/07/20 11:58:59;;;;;;;1.25;1.15;;;28.40;57.10;;;;;;5013324;28;20038;-76
2023/07/20 12:01:28;;;;;;;1.42;1.27;;;28.20;55.90;;;;;;5013223;28;20030;-76
2023/07/20 12:03:56;;;;;;;4.60;1.27;;;28.10;61.70;;;;;;5011991;28;20021;-76
2023/07/20 12:06:27;;;;;;;2.05;1.23;;;28.00;68.00;;;;;;5013564;28;20026;-76
2023/07/20 12:08:58;;;;;;;2.60;1.20;;;27.50;68.40;;;;;;5012341;28;20021;-75
2023/07/20 12:11:38;;;;;;;2.10;1.27;;;27.20;77.20;;;;;;5014745;28;20026;-75
2023/07/20 12:14:08;;;;;;;3.63;1.50;;;26.80;87.20;;;;;;5010960;28;20074;-75
2023/07/20 12:16:36;;;;;;;2.13;1.40;;;25.90;83.00;;;;;;5013575;28;20438;-75
2023/07/20 12:19:03;;;;;;;1.20;1.10;;;25.20;89.30;;;;;;5013922;28;20468;-76
2023/07/20 12:21:40;;;;;;;2.92;1.15;;;24.80;94.70;;;;;;5013867;28;20030;-75
2023/07/20 12:24:06;;;;;;;4.10;1.23;;;24.70;99.90;;;;;;5012470;28;20114;-75
2023/07/20 12:26:33;;;;;;;2.72;1.15;;;24.40;99.90;;;;;;5011147;28;20022;-75
2023/07/20 12:28:59;;;;;;;2.88;1.52;;;23.70;99.90;;;;;;5011362;28;20018;-74
2023/07/20 12:31:26;;;;;;;2.72;1.40;;;23.20;99.90;;;;;;5012137;28;20034;-75
2023/07/20 12:33:52;;;;;;;2.38;1.35;;;22.50;99.90;;;;;;5014376;28;20117;-76
2023/07/20 12:36:18;;;;;;;5.13;2.05;;;21.80;99.90;;;;;;5024438;28;20439;-75
2023/07/20 12:38:44;;;;;;;2.20;1.30;;;21.30;99.90;;;;;;5030913;28;20030;-75
2023/07/20 12:41:14;;;;;;;2.20;1.17;;;20.90;99.90;;;;;;5026253;28;20095;-76
2023/07/20 12:43:41;;;;;;;1.75;1.15;;;20.70;99.90;;;;;;5012642;28;20025;-76
2023/07/20 12:46:07;;;;;;;1.52;1.27;;;20.90;99.90;;;;;;5012786;28;20144;-75
2023/07/20 12:48:33;;;;;;;2.83;1.75;;;21.60;99.90;;;;;;5011168;28;20052;-76
2023/07/20 12:50:58;;;;;;;2.65;1.55;;;22.00;99.90;;;;;;5011105;28;20034;-75